Time;durP1;ratioP1;P1;durP2;ratioP2;P2;SDS_P1;SDS_P2;PMS_P1;PMS_P2;Temp;Humidity;BMP_temperature;BMP_pressure;BME280_temperature;BME280_humidity;BME280_pressure;Samples;Min_cycle;Max_cycle;Signal;HPM_P1;HPM_P2
2022/02/19 00:01:31;;;;;;;;;;;;;;;17.14;48.85;100192.94;4977524;28;20376;-76
2022/02/19 00:03:57;;;;;;;;;;;;;;;17.13;48.51;100180.78;4995322;28;19921;-77
2022/02/19 00:06:22;;;;;;;;;;;;;;;17.14;48.73;100205.94;4989011;28;19922;-77
2022/02/19 00:08:48;;;;;;;;;;;;;;;17.12;48.63;100218.09;4980878;28;19925;-78
2022/02/19 00:11:13;;;;;;;;;;;;;;;17.12;48.87;100237.16;4996326;28;19924;-79
2022/02/19 00:13:39;;;;;;;;;;;;;;;17.13;48.48;100227.59;4980806;28;19917;-77
2022/02/19 00:16:05;;;;;;;;;;;;;;;17.11;48.48;100235.41;5012344;28;19967;-77
2022/02/19 00:18:31;;;;;;;;;;;;;;;17.12;48.58;100270.09;4967141;28;19926;-76
2022/02/19 00:20:56;;;;;;;;;;;;;;;17.12;48.64;100241.50;4990518;28;19924;-77
2022/02/19 00:23:21;;;;;;;;;;;;;;;17.11;48.48;100256.22;4977413;28;19974;-77
2022/02/19 00:25:47;;;;;;;;;;;;;;;17.11;48.37;100265.75;4977621;28;19957;-78
2022/02/19 00:28:12;;;;;;;;;;;;;;;17.10;48.58;100284.84;4985256;28;19965;-77
2022/02/19 00:30:37;;;;;;;;;;;;;;;17.11;48.49;100281.34;4980102;28;19921;-77
2022/02/19 00:33:02;;;;;;;;;;;;;;;17.11;48.47;100286.56;4986367;28;20359;-78
2022/02/19 00:35:28;;;;;;;;;;;;;;;17.10;48.29;100280.50;4992541;28;19913;-78
2022/02/19 00:37:53;;;;;;;;;;;;;;;17.09;48.09;100304.78;4996469;28;20004;-77
2022/02/19 00:40:18;;;;;;;;;;;;;;;17.11;48.57;100312.56;4995905;28;19917;-77
2022/02/19 00:42:44;;;;;;;;;;;;;;;17.10;48.37;100321.25;4977019;28;19968;-76
2022/02/19 00:45:09;;;;;;;;;;;;;;;17.09;48.21;100317.75;4977186;28;19925;-77
2022/02/19 00:47:34;;;;;;;;;;;;;;;17.10;48.50;100308.25;5010795;28;19965;-77
2022/02/19 00:49:59;;;;;;;;;;;;;;;17.10;48.23;100335.09;4996746;28;19925;-77
2022/02/19 00:52:25;;;;;;;;;;;;;;;17.09;48.40;100337.72;4998850;28;19989;-77
2022/02/19 00:54:50;;;;;;;;;;;;;;;17.09;48.13;100346.38;4994461;28;19921;-77
2022/02/19 00:57:15;;;;;;;;;;;;;;;17.09;48.25;100348.13;4976912;28;19976;-76
2022/02/19 00:59:41;;;;;;;;;;;;;;;17.10;48.17;100362.84;4963070;28;19926;-77
2022/02/19 01:02:06;;;;;;;;;;;;;;;17.08;48.29;100351.59;4991534;28;20025;-77
2022/02/19 01:04:31;;;;;;;;;;;;;;;17.08;48.18;100362.84;4975694;28;19918;-78
2022/02/19 01:06:56;;;;;;;;;;;;;;;17.09;48.07;100376.72;4980709;28;20430;-77
2022/02/19 01:09:26;;;;;;;;;;;;;;;17.08;47.89;100375.84;4980738;28;19918;-77
2022/02/19 01:11:51;;;;;;;;;;;;;;;17.07;47.87;100392.31;4987696;28;19929;-78
2022/02/19 01:14:16;;;;;;;;;;;;;;;17.07;47.89;100397.53;4980561;28;19918;-77
2022/02/19 01:16:41;;;;;;;;;;;;;;;17.07;48.04;100418.31;4992129;28;19921;-77
2022/02/19 01:19:06;;;;;;;;;;;;;;;17.06;47.85;100409.66;4992082;28;20001;-78
2022/02/19 01:21:32;;;;;;;;;;;;;;;17.06;47.89;100407.06;4995050;28;19926;-77
2022/02/19 01:23:57;;;;;;;;;;;;;;;17.06;47.94;100408.81;4980354;28;19941;-77
2022/02/19 01:26:23;;;;;;;;;;;;;;;17.05;47.85;100428.75;4997784;28;19964;-77
2022/02/19 01:28:48;;;;;;;;;;;;;;;17.06;47.89;100429.63;4980274;28;20036;-78
2022/02/19 01:31:13;;;;;;;;;;;;;;;17.06;47.93;100427.88;4980775;28;19929;-77
2022/02/19 01:33:38;;;;;;;;;;;;;;;17.05;47.95;100444.34;4999638;28;19918;-76
2022/02/19 01:36:04;;;;;;;;;;;;;;;17.05;47.81;100452.16;4975120;28;19922;-77
2022/02/19 01:38:30;;;;;;;;;;;;;;;17.05;47.87;100453.91;4983758;28;20028;-77
2022/02/19 01:40:55;;;;;;;;;;;;;;;17.05;47.79;100472.09;4964377;28;20016;-77
2022/02/19 01:43:20;;;;;;;;;;;;;;;17.04;47.90;100467.75;4998035;28;19945;-79
2022/02/19 01:45:47;;;;;;;;;;;;;;;17.04;47.74;100473.81;4965152;28;19925;-79
2022/02/19 01:48:12;;;;;;;;;;;;;;;17.05;47.73;100487.69;4981273;28;19920;-78
2022/02/19 01:50:37;;;;;;;;;;;;;;;17.04;47.47;100496.34;4973360;28;20012;-78
2022/02/19 01:53:03;;;;;;;;;;;;;;;17.04;47.63;100496.34;4964420;28;19929;-79
2022/02/19 01:55:28;;;;;;;;;;;;;;;17.03;47.55;100505.91;4979879;28;19918;-78
2022/02/19 01:57:54;;;;;;;;;;;;;;;17.03;47.40;100499.84;4964050;28;19933;-77
2022/02/19 02:00:19;;;;;;;;;;;;;;;17.02;47.76;100519.75;4963436;28;19933;-77
2022/02/19 02:02:44;;;;;;;;;;;;;;;17.03;47.72;100523.25;4996934;28;19913;-77
2022/02/19 02:05:10;;;;;;;;;;;;;;;17.03;47.60;100536.25;5001724;28;19924;-78
2022/02/19 02:07:35;;;;;;;;;;;;;;;17.03;47.65;100539.69;4998954;28;20008;-79
2022/02/19 02:10:01;;;;;;;;;;;;;;;17.02;47.45;100542.31;4997857;28;20380;-77
2022/02/19 02:12:26;;;;;;;;;;;;;;;17.02;47.71;100558.75;4998748;28;19972;-81
2022/02/19 02:14:51;;;;;;;;;;;;;;;17.02;47.36;100563.97;4997144;28;20359;-79
2022/02/19 02:17:17;;;;;;;;;;;;;;;17.02;47.53;100563.09;4988008;28;19928;-77
2022/02/19 02:19:42;;;;;;;;;;;;;;;17.01;47.77;100564.84;4993564;28;20004;-77
2022/02/19 02:22:08;;;;;;;;;;;;;;;17.00;47.52;100570.06;4981255;28;19953;-78
2022/02/19 02:24:35;;;;;;;;;;;;;;;17.00;47.50;100570.06;4998751;28;19953;-79
2022/02/19 02:27:03;;;;;;;;;;;;;;;17.01;47.26;100590.00;5010056;28;19924;-77
2022/02/19 02:29:28;;;;;;;;;;;;;;;17.00;47.45;100589.09;4997917;28;19918;-76
2022/02/19 02:31:53;;;;;;;;;;;;;;;16.99;47.42;100609.94;4986143;28;19928;-79
2022/02/19 02:34:19;;;;;;;;;;;;;;;17.00;47.54;100609.06;4996643;28;19918;-77
2022/02/19 02:36:45;;;;;;;;;;;;;;;17.00;47.53;100611.66;4984770;28;20052;-76
2022/02/19 02:39:10;;;;;;;;;;;;;;;16.98;47.56;100622.06;4982150;28;20004;-77
2022/02/19 02:41:35;;;;;;;;;;;;;;;17.00;47.62;100616.84;4981549;28;19944;-77
2022/02/19 02:44:00;;;;;;;;;;;;;;;16.99;47.22;100617.75;4998324;28;19917;-79
2022/02/19 02:46:25;;;;;;;;;;;;;;;16.98;47.65;100636.81;4994748;28;19917;-78
2022/02/19 02:48:51;;;;;;;;;;;;;;;16.98;47.23;100636.81;4979824;28;19973;-77
2022/02/19 02:51:16;;;;;;;;;;;;;;;16.98;47.52;100629.00;4963271;28;19984;-77
2022/02/19 02:53:41;;;;;;;;;;;;;;;16.98;47.52;100639.41;4982661;28;19922;-77
2022/02/19 02:56:07;;;;;;;;;;;;;;;16.98;47.47;100642.00;5010045;28;20368;-77
2022/02/19 02:58:32;;;;;;;;;;;;;;;16.96;47.47;100660.22;4962527;28;19921;-76
2022/02/19 03:00:57;;;;;;;;;;;;;;;16.96;47.15;100664.53;4988262;28;19932;-77
2022/02/19 03:03:22;;;;;;;;;;;;;;;16.96;47.32;100660.22;4994491;28;20261;-77
2022/02/19 03:05:48;;;;;;;;;;;;;;;16.97;46.94;100672.34;4994494;28;20004;-77
2022/02/19 03:08:13;;;;;;;;;;;;;;;16.96;47.34;100669.75;4994742;28;20020;-77
2022/02/19 03:10:38;;;;;;;;;;;;;;;16.96;47.21;100678.44;4994625;28;19967;-79
2022/02/19 03:13:03;;;;;;;;;;;;;;;16.96;47.01;100674.94;4994567;28;20356;-78
2022/02/19 03:15:29;;;;;;;;;;;;;;;16.95;47.16;100692.28;4978386;28;20279;-77
2022/02/19 03:17:54;;;;;;;;;;;;;;;16.95;47.22;100692.28;4995509;28;19961;-77
2022/02/19 03:20:26;;;;;;;;;;;;;;;16.95;47.23;100676.69;4995172;28;19922;-78
2022/02/19 03:22:51;;;;;;;;;;;;;;;16.94;47.23;100689.69;4995163;28;20056;-80
2022/02/19 03:25:17;;;;;;;;;;;;;;;16.95;47.20;100691.44;4995441;28;20388;-77
2022/02/19 03:27:43;;;;;;;;;;;;;;;16.94;47.12;100710.47;4994046;28;19918;-77
2022/02/19 03:30:09;;;;;;;;;;;;;;;16.93;47.25;100709.63;4994266;28;20371;-79
2022/02/19 03:32:35;;;;;;;;;;;;;;;16.93;46.80;100709.63;4995071;28;20008;-77
2022/02/19 03:35:00;;;;;;;;;;;;;;;16.92;47.32;100728.72;4995295;28;20431;-79
2022/02/19 03:37:26;;;;;;;;;;;;;;;16.94;47.03;100723.47;4993855;28;19924;-78
2022/02/19 03:39:52;;;;;;;;;;;;;;;16.92;47.21;100728.72;4994152;28;20012;-78
2022/02/19 03:42:17;;;;;;;;;;;;;;;16.92;46.98;100727.81;4993690;28;20008;-77
2022/02/19 03:44:42;;;;;;;;;;;;;;;16.92;47.07;100735.63;4995147;28;19921;-77
2022/02/19 03:47:08;;;;;;;;;;;;;;;16.92;47.14;100749.50;4993796;28;19918;-78
2022/02/19 03:49:33;;;;;;;;;;;;;;;16.92;47.28;100746.91;4993813;28;19917;-80
2022/02/19 03:51:58;;;;;;;;;;;;;;;16.92;47.33;100749.50;4993554;28;19917;-76
2022/02/19 03:54:23;;;;;;;;;;;;;;;16.91;47.17;100763.38;4977511;28;19964;-78
2022/02/19 03:56:50;;;;;;;;;;;;;;;16.91;46.95;100765.09;4994796;28;19929;-76
2022/02/19 03:59:16;;;;;;;;;;;;;;;16.91;47.14;100784.16;4993677;28;19928;-76
2022/02/19 04:01:41;;;;;;;;;;;;;;;16.91;47.05;100771.16;4993494;28;19976;-78
2022/02/19 04:04:07;;;;;;;;;;;;;;;16.90;47.31;100807.56;4993726;28;20008;-77
2022/02/19 04:06:32;;;;;;;;;;;;;;;16.89;46.95;100780.72;4977249;28;19985;-76
2022/02/19 04:08:58;;;;;;;;;;;;;;;16.89;46.80;100782.44;4993643;28;20276;-78
2022/02/19 04:11:23;;;;;;;;;;;;;;;16.88;46.69;100792.00;4994693;28;20364;-78
2022/02/19 04:13:49;;;;;;;;;;;;;;;16.89;47.16;100798.03;4977367;28;20383;-77
2022/02/19 04:16:14;;;;;;;;;;;;;;;16.88;47.04;100805.00;4993606;28;19914;-78
2022/02/19 04:18:40;;;;;;;;;;;;;;;16.89;46.91;100811.03;4993162;28;19922;-79
2022/02/19 04:21:06;;;;;;;;;;;;;;;16.88;47.00;100806.72;4977307;28;19922;-77
2022/02/19 04:23:32;;;;;;;;;;;;;;;16.88;47.19;100818.00;4993437;28;20025;-79
2022/02/19 04:25:57;;;;;;;;;;;;;;;16.87;47.04;100824.03;4993694;28;19965;-77
2022/02/19 04:28:22;;;;;;;;;;;;;;;16.87;47.12;100824.03;4994227;28;19922;-77
2022/02/19 04:30:47;;;;;;;;;;;;;;;16.86;47.30;100841.38;4976891;28;19972;-77
2022/02/19 04:33:13;;;;;;;;;;;;;;;16.87;47.09;100850.03;4992846;28;19918;-75
2022/02/19 04:35:39;;;;;;;;;;;;;;;16.87;46.94;100855.22;4997114;28;19953;-75
2022/02/19 04:38:04;;;;;;;;;;;;;;;16.86;46.80;100848.31;4996919;28;20385;-74
2022/02/19 04:40:30;;;;;;;;;;;;;;;16.85;46.79;100863.06;4997119;28;19937;-75
2022/02/19 04:42:55;;;;;;;;;;;;;;;16.84;47.09;100858.72;4997106;28;19924;-74
2022/02/19 04:45:20;;;;;;;;;;;;;;;16.86;46.78;100876.91;4980887;28;19945;-74
2022/02/19 04:47:46;;;;;;;;;;;;;;;16.84;46.96;100860.47;4980867;28;19925;-75
2022/02/19 04:50:11;;;;;;;;;;;;;;;16.85;46.93;100867.38;4998025;28;19929;-74
2022/02/19 04:52:37;;;;;;;;;;;;;;;16.85;46.95;100893.34;4998145;28;19950;-74
2022/02/19 04:55:02;;;;;;;;;;;;;;;16.85;46.68;100883.84;4998545;28;19918;-74
2022/02/19 04:57:27;;;;;;;;;;;;;;;16.85;46.83;100890.75;4996548;28;19917;-74
2022/02/19 04:59:54;;;;;;;;;;;;;;;16.83;47.08;100883.00;4983656;28;19929;-75
2022/02/19 05:02:19;;;;;;;;;;;;;;;16.82;46.90;100889.03;5007989;28;19917;-75
2022/02/19 05:04:45;;;;;;;;;;;;;;;16.83;47.15;100885.59;4996895;28;19975;-75
2022/02/19 05:07:10;;;;;;;;;;;;;;;16.83;46.80;100889.91;4999762;28;19957;-75
2022/02/19 05:09:35;;;;;;;;;;;;;;;16.82;47.02;100898.59;4997660;28;19921;-73
2022/02/19 05:12:01;;;;;;;;;;;;;;;16.82;46.64;100909.84;4965593;28;20303;-76
2022/02/19 05:14:26;;;;;;;;;;;;;;;16.82;46.93;100890.78;5015601;28;19924;-75
2022/02/19 05:16:51;;;;;;;;;;;;;;;16.80;47.01;100906.38;4977188;28;19922;-80
2022/02/19 05:19:16;;;;;;;;;;;;;;;16.81;47.05;100902.03;4983569;28;19922;-80
2022/02/19 05:21:42;;;;;;;;;;;;;;;16.81;46.97;100913.31;4983543;28;19917;-81
2022/02/19 05:24:07;;;;;;;;;;;;;;;16.85;46.98;100915.03;4990129;28;19986;-83
2022/02/19 05:26:32;;;;;;;;;;;;;;;16.88;46.96;100914.16;5008794;28;19924;-88
2022/02/19 05:28:58;;;;;;;;;;;;;;;16.88;46.94;100913.31;4988793;28;19924;-82
2022/02/19 05:31:23;;;;;;;;;;;;;;;16.88;46.63;100927.16;4999382;28;19913;-78
2022/02/19 05:33:48;;;;;;;;;;;;;;;16.87;46.90;100922.81;4982897;28;19928;-78
2022/02/19 05:36:13;;;;;;;;;;;;;;;16.85;46.58;100915.03;4983107;28;19921;-80
2022/02/19 05:38:39;;;;;;;;;;;;;;;16.86;46.52;100931.50;4989302;28;20012;-79
2022/02/19 05:41:04;;;;;;;;;;;;;;;16.86;46.64;100939.28;4963972;28;19969;-80
2022/02/19 05:43:29;;;;;;;;;;;;;;;16.85;46.68;100935.84;4963979;28;19972;-81
2022/02/19 05:45:55;;;;;;;;;;;;;;;16.86;46.70;100937.53;4963578;28;19918;-81
2022/02/19 05:48:20;;;;;;;;;;;;;;;16.85;46.63;100929.75;4985001;28;19924;-78
2022/02/19 05:50:45;;;;;;;;;;;;;;;16.83;46.72;100940.19;4979775;28;19944;-78
2022/02/19 05:53:12;;;;;;;;;;;;;;;16.84;46.62;100939.28;4982382;28;20009;-79
2022/02/19 05:55:37;;;;;;;;;;;;;;;16.84;46.58;100935.84;4983236;28;19976;-79
2022/02/19 05:58:02;;;;;;;;;;;;;;;16.84;46.54;100941.88;4980991;28;20322;-78
2022/02/19 06:00:27;;;;;;;;;;;;;;;16.82;46.58;100941.03;4966288;28;20024;-79
2022/02/19 06:02:53;;;;;;;;;;;;;;;16.83;46.58;100940.19;4976707;28;19925;-79
2022/02/19 06:05:18;;;;;;;;;;;;;;;16.83;46.57;100960.06;4998515;28;19928;-80
2022/02/19 06:07:43;;;;;;;;;;;;;;;16.83;46.45;100949.69;4999114;28;19918;-80
2022/02/19 06:10:09;;;;;;;;;;;;;;;16.83;46.57;100962.69;4965048;28;19918;-79
2022/02/19 06:12:34;;;;;;;;;;;;;;;16.84;46.56;100951.44;4979384;28;20008;-79
2022/02/19 06:14:59;;;;;;;;;;;;;;;16.83;46.42;100952.28;4963261;28;19917;-79
2022/02/19 06:17:24;;;;;;;;;;;;;;;16.82;46.54;100967.03;4967266;28;19921;-81
2022/02/19 06:19:50;;;;;;;;;;;;;;;16.83;46.23;100970.47;4982589;28;20391;-79
2022/02/19 06:22:15;;;;;;;;;;;;;;;16.84;46.45;100985.22;4980859;28;20012;-85
2022/02/19 06:24:40;;;;;;;;;;;;;;;16.82;46.33;100979.16;4972722;28;19922;-80
2022/02/19 06:27:05;;;;;;;;;;;;;;;16.82;46.59;100993.00;4998205;28;19967;-80
2022/02/19 06:29:31;;;;;;;;;;;;;;;16.82;46.77;101000.81;5000715;28;19964;-81
2022/02/19 06:31:56;;;;;;;;;;;;;;;16.82;46.77;101003.41;4980347;28;19922;-80
2022/02/19 06:34:21;;;;;;;;;;;;;;;16.84;46.93;101000.81;4974328;28;19928;-80
2022/02/19 06:36:47;;;;;;;;;;;;;;;16.83;46.81;101012.06;4979002;28;19925;-76
2022/02/19 06:39:12;;;;;;;;;;;;;;;16.84;46.85;101030.25;4978825;28;19925;-77
2022/02/19 06:41:37;;;;;;;;;;;;;;;16.84;46.75;101024.19;4962666;28;19918;-75
2022/02/19 06:44:03;;;;;;;;;;;;;;;16.84;46.99;101032.00;4984335;28;19925;-76
2022/02/19 06:46:28;;;;;;;;;;;;;;;16.90;47.03;101038.91;4986619;28;19926;-79
2022/02/19 06:48:54;;;;;;;;;;;;;;;16.95;47.28;101043.22;4966842;28;19921;-83
2022/02/19 06:51:19;;;;;;;;;;;;;;;16.98;47.43;101053.59;4973997;28;20460;-78
2022/02/19 06:53:45;;;;;;;;;;;;;;;17.01;47.68;101055.34;4998153;28;19921;-82
2022/02/19 06:56:10;;;;;;;;;;;;;;;17.01;47.64;101058.81;4983112;28;19921;-79
2022/02/19 06:58:35;;;;;;;;;;;;;;;17.02;47.41;101070.91;5001570;28;19967;-76
2022/02/19 07:01:00;;;;;;;;;;;;;;;17.04;47.52;101070.91;4970606;28;19933;-80
2022/02/19 07:03:26;;;;;;;;;;;;;;;17.05;47.46;101072.66;4973709;28;19918;-79
2022/02/19 07:05:53;;;;;;;;;;;;;;;17.06;47.55;101077.84;4989042;28;19918;-81
2022/02/19 07:08:20;;;;;;;;;;;;;;;17.06;47.51;101102.97;4998177;28;20375;-79
2022/02/19 07:10:45;;;;;;;;;;;;;;;17.07;47.87;101073.50;5015210;28;20005;-79
2022/02/19 07:13:10;;;;;;;;;;;;;;;17.08;47.81;101083.03;4996302;28;19965;-80
2022/02/19 07:15:35;;;;;;;;;;;;;;;17.09;47.63;101089.09;4997804;28;19922;-81
2022/02/19 07:18:01;;;;;;;;;;;;;;;17.11;47.61;101098.63;4981129;28;20015;-81
2022/02/19 07:20:27;;;;;;;;;;;;;;;17.12;47.97;101089.09;4997197;28;20376;-82
2022/02/19 07:22:52;;;;;;;;;;;;;;;17.14;47.71;101092.56;4988539;28;19918;-81
2022/02/19 07:25:18;;;;;;;;;;;;;;;17.16;47.70;101094.28;4983887;28;19921;-81
2022/02/19 07:27:44;;;;;;;;;;;;;;;17.18;47.67;101100.34;4978733;28;20009;-80
2022/02/19 07:30:10;;;;;;;;;;;;;;;17.20;47.59;101103.81;4977741;28;20364;-83
2022/02/19 07:32:36;;;;;;;;;;;;;;;17.21;47.53;101104.66;4977712;28;19981;-79
2022/02/19 07:35:02;;;;;;;;;;;;;;;17.21;47.47;101105.53;4997568;28;19922;-76
2022/02/19 07:37:30;;;;;;;;;;;;;;;17.21;47.37;101102.06;4984413;28;19996;-78
2022/02/19 07:39:55;;;;;;;;;;;;;;;17.25;47.59;101109.00;5010833;28;19917;-82
2022/02/19 07:42:21;;;;;;;;;;;;;;;17.30;47.44;101106.38;4997315;28;19918;-83
2022/02/19 07:44:46;;;;;;;;;;;;;;;17.33;47.63;101111.53;4974156;28;19957;-82
2022/02/19 07:47:11;;;;;;;;;;;;;;;17.38;47.47;101113.28;5004389;28;20300;-79
2022/02/19 08:00:32;;;;;;;;;;;;;;;17.46;47.32;101121.03;4980174;28;19936;-81
2022/02/19 08:02:57;;;;;;;;;;;;;;;17.46;47.40;101136.63;4977335;28;20320;-78
2022/02/19 08:05:23;;;;;;;;;;;;;;;17.48;47.03;101132.28;4961457;28;19922;-78
2022/02/19 08:07:48;;;;;;;;;;;;;;;17.48;47.36;101132.28;4960779;28;19925;-77
2022/02/19 08:10:13;;;;;;;;;;;;;;;17.51;47.16;101144.41;4961009;28;19949;-79
2022/02/19 08:12:38;;;;;;;;;;;;;;;17.49;46.88;101136.63;4994706;28;19924;-78
2022/02/19 08:15:04;;;;;;;;;;;;;;;17.52;46.83;101138.34;4977558;28;19917;-76
2022/02/19 08:17:30;;;;;;;;;;;;;;;17.54;46.91;101149.63;4994729;28;19913;-77
2022/02/19 08:19:55;;;;;;;;;;;;;;;17.59;46.91;101146.13;4961166;28;19918;-87
2022/02/19 08:22:20;;;;;;;;;;;;;;;17.76;46.40;101155.59;4977473;28;19960;-85
2022/02/19 08:24:46;;;;;;;;;;;;;;;17.89;45.94;101155.53;4961324;28;19918;-84
2022/02/19 08:27:11;;;;;;;;;;;;;;;17.95;46.00;101152.03;4961184;28;19985;-82
2022/02/19 08:29:36;;;;;;;;;;;;;;;18.06;45.97;101165.88;4977219;28;20395;-81
2022/02/19 08:32:02;;;;;;;;;;;;;;;17.96;46.17;101171.13;4961112;28;19925;-83
2022/02/19 08:34:27;;;;;;;;;;;;;;;17.98;46.09;101175.44;4977407;28;20021;-83
2022/02/19 08:36:56;;;;;;;;;;;;;;;18.11;46.18;101173.63;4961404;28;19968;-87
2022/02/19 08:39:21;;;;;;;;;;;;;;;18.16;45.85;101174.50;4962647;28;19922;-81
2022/02/19 08:41:47;;;;;;;;;;;;;;;18.19;45.68;101179.69;4977366;28;19918;-77
2022/02/19 08:44:12;;;;;;;;;;;;;;;18.14;45.71;101183.16;4960973;28;20013;-77
2022/02/19 08:46:38;;;;;;;;;;;;;;;17.92;46.48;101180.72;4977017;28;19913;-80
2022/02/19 08:49:03;;;;;;;;;;;;;;;17.82;46.46;101189.44;4977356;28;19972;-79
2022/02/19 08:51:29;;;;;;;;;;;;;;;17.84;46.44;101190.31;4977055;28;19914;-80
2022/02/19 08:53:54;;;;;;;;;;;;;;;17.88;46.33;101189.41;4977090;28;19921;-78
2022/02/19 08:56:19;;;;;;;;;;;;;;;17.87;46.29;101188.53;4960986;28;20017;-79
2022/02/19 08:58:45;;;;;;;;;;;;;;;17.95;46.04;101192.84;4976784;28;19929;-82
2022/02/19 09:01:10;;;;;;;;;;;;;;;18.01;45.88;101192.81;4960850;28;19933;-79
2022/02/19 09:03:35;;;;;;;;;;;;;;;18.02;45.81;101195.41;4976934;28;19917;-78
2022/02/19 09:06:01;;;;;;;;;;;;;;;17.93;46.08;101197.19;4960933;28;20317;-78
2022/02/19 09:08:26;;;;;;;;;;;;;;;17.99;45.97;101205.84;4960947;28;20316;-80
2022/02/19 09:10:51;;;;;;;;;;;;;;;18.06;45.71;101211.88;4960807;28;19924;-78
2022/02/19 09:13:17;;;;;;;;;;;;;;;18.04;45.80;101205.81;4960764;28;19918;-78
2022/02/19 09:15:42;;;;;;;;;;;;;;;18.03;45.84;101206.66;4977430;28;19909;-78
2022/02/19 09:18:07;;;;;;;;;;;;;;;18.05;45.99;101216.22;4985855;28;19937;-80
2022/02/19 09:20:33;;;;;;;;;;;;;;;18.03;45.92;101220.59;4996391;28;19921;-79
2022/02/19 09:22:58;;;;;;;;;;;;;;;18.01;46.03;101224.06;4999809;28;19976;-78
2022/02/19 09:25:23;;;;;;;;;;;;;;;17.99;46.11;101234.50;4983798;28;20011;-77
2022/02/19 09:27:49;;;;;;;;;;;;;;;17.96;46.28;101231.88;4983704;28;20261;-80
2022/02/19 09:30:14;;;;;;;;;;;;;;;17.93;46.47;101224.09;4983358;28;19917;-79
2022/02/19 09:32:40;;;;;;;;;;;;;;;17.93;46.45;101233.66;4999668;28;19913;-77
2022/02/19 09:35:06;;;;;;;;;;;;;;;17.88;46.51;101228.47;4999588;28;20261;-78
2022/02/19 09:37:32;;;;;;;;;;;;;;;17.89;46.33;101233.66;4999564;28;20506;-78
2022/02/19 09:39:57;;;;;;;;;;;;;;;17.94;46.33;101243.19;4999678;28;20303;-79
2022/02/19 09:42:23;;;;;;;;;;;;;;;17.95;46.46;101244.94;4983211;28;20103;-79
2022/02/19 09:44:48;;;;;;;;;;;;;;;17.97;46.15;101236.22;4999360;28;20701;-80
2022/02/19 09:47:16;;;;;;;;;;;;;;;17.98;46.10;101250.09;4999548;28;19953;-78
2022/02/19 09:49:42;;;;;;;;;;;;;;;17.97;46.04;101241.44;4999766;28;19920;-79
2022/02/19 09:52:07;;;;;;;;;;;;;;;17.94;46.14;101254.44;5017195;28;20000;-76
2022/02/19 09:54:33;;;;;;;;;;;;;;;17.90;46.35;101268.38;4999734;28;19960;-81
2022/02/19 09:56:58;;;;;;;;;;;;;;;17.95;46.25;101255.34;4983411;28;20332;-79
2022/02/19 09:59:23;;;;;;;;;;;;;;;17.95;46.14;101252.75;4999675;28;19925;-79
2022/02/19 10:01:59;;;;;;;;;;;;;;;17.92;46.17;101266.66;4999435;28;19921;-80
2022/02/19 10:04:25;;;;;;;;;;;;;;;17.96;46.29;101267.47;4999984;28;20326;-78
2022/02/19 10:06:50;;;;;;;;;;;;;;;17.97;46.23;101262.28;5016929;28;19914;-79
2022/02/19 10:09:17;;;;;;;;;;;;;;;18.01;46.12;101260.53;4999418;28;19917;-80
2022/02/19 10:11:46;;;;;;;;;;;;;;;17.99;46.14;101257.06;5016537;28;19922;-80
2022/02/19 10:14:19;;;;;;;;;;;;;;;17.99;46.34;101265.72;4999413;28;19945;-78
2022/02/19 10:17:01;;;;;;;;;;;;;;;18.09;45.92;101267.44;4998991;28;19913;-79
2022/02/19 10:19:27;;;;;;;;;;;;;;;18.09;45.78;101277.84;4998620;28;19913;-80
2022/02/19 10:22:07;;;;;;;;;;;;;;;18.16;45.62;101281.28;4999089;28;20363;-80
2022/02/19 10:24:34;;;;;;;;;;;;;;;18.13;45.78;101281.28;4998623;28;19920;-78
2022/02/19 10:27:00;;;;;;;;;;;;;;;18.09;45.98;101279.56;4998819;28;19910;-82
2022/02/19 10:29:25;;;;;;;;;;;;;;;18.08;45.80;101277.84;4982398;28;19967;-81
2022/02/19 10:31:55;;;;;;;;;;;;;;;18.10;45.83;101281.31;4981468;28;20387;-84
2022/02/19 10:34:21;;;;;;;;;;;;;;;18.08;45.98;101262.22;5000474;28;19968;-83
2022/02/19 10:36:47;;;;;;;;;;;;;;;18.01;46.48;101265.75;4984058;28;19917;-85
2022/02/19 10:39:12;;;;;;;;;;;;;;;17.98;46.60;101269.19;5002694;28;19913;-83
2022/02/19 10:41:39;;;;;;;;;;;;;;;17.97;46.58;101272.69;5005445;28;19924;-83
2022/02/19 10:44:20;;;;;;;;;;;;;;;17.99;46.55;101278.75;5000668;28;19913;-84
2022/02/19 10:46:46;;;;;;;;;;;;;;;18.00;46.74;101288.28;5004270;28;19996;-85
2022/02/19 10:49:11;;;;;;;;;;;;;;;18.00;46.47;101292.63;5007254;28;19964;-85
2022/02/19 10:51:36;;;;;;;;;;;;;;;18.02;46.84;101280.47;5000876;28;19960;-84
2022/02/19 10:54:02;;;;;;;;;;;;;;;18.10;46.66;101276.09;4983613;28;20013;-83
2022/02/19 10:56:28;;;;;;;;;;;;;;;18.12;46.35;101278.69;5017858;28;20290;-83
2022/02/19 10:59:06;;;;;;;;;;;;;;;18.11;46.28;101282.16;4984081;28;19928;-83
2022/02/19 11:01:41;;;;;;;;;;;;;;;18.12;46.54;101295.19;4999531;28;19925;-85
2022/02/19 11:04:06;;;;;;;;;;;;;;;18.13;46.39;101272.63;4999541;28;19940;-83
2022/02/19 11:06:33;;;;;;;;;;;;;;;18.12;46.54;101279.56;4998531;28;19913;-80
2022/02/19 11:08:58;;;;;;;;;;;;;;;18.07;46.66;101284.81;4998116;28;20048;-77
2022/02/19 11:11:24;;;;;;;;;;;;;;;18.05;46.77;101275.25;4999185;28;19964;-83
2022/02/19 11:13:49;;;;;;;;;;;;;;;18.08;46.60;101288.28;4987900;28;19917;-81
2022/02/19 11:16:14;;;;;;;;;;;;;;;18.11;46.54;101277.81;5015843;28;19957;-81
2022/02/19 11:18:41;;;;;;;;;;;;;;;18.11;46.71;101284.78;4998107;28;19963;-81
2022/02/19 11:21:07;;;;;;;;;;;;;;;18.12;46.70;101286.50;4997968;28;19960;-80
2022/02/19 11:23:33;;;;;;;;;;;;;;;18.09;46.78;101272.63;4982024;28;19917;-80
2022/02/19 11:25:59;;;;;;;;;;;;;;;18.16;46.51;101283.91;4997759;28;20424;-81
2022/02/19 11:28:26;;;;;;;;;;;;;;;18.24;46.42;101274.28;5015230;28;19920;-78
2022/02/19 11:30:54;;;;;;;;;;;;;;;18.23;46.31;101274.31;4981587;28;19968;-79
2022/02/19 11:33:20;;;;;;;;;;;;;;;18.17;46.55;101262.16;5015167;28;19920;-82
2022/02/19 11:35:46;;;;;;;;;;;;;;;18.15;46.44;101265.66;4981278;28;19917;-80
2022/02/19 11:38:27;;;;;;;;;;;;;;;18.17;46.72;101287.34;4997259;28;19940;-79
2022/02/19 11:40:53;;;;;;;;;;;;;;;18.19;46.36;101281.25;5015019;28;20381;-78
2022/02/19 11:43:34;;;;;;;;;;;;;;;18.24;46.39;101274.28;4980923;28;19917;-80
2022/02/19 11:46:00;;;;;;;;;;;;;;;18.19;46.52;101275.19;4997217;28;19913;-79
2022/02/19 11:48:27;;;;;;;;;;;;;;;18.16;46.44;101273.47;4997235;28;19914;-80
2022/02/19 11:51:08;;;;;;;;;;;;;;;18.14;46.68;101262.19;4997527;28;19913;-87
2022/02/19 11:53:34;;;;;;;;;;;;;;;18.13;46.61;101263.06;4997188;28;19918;-84
2022/02/19 11:56:00;;;;;;;;;;;;;;;18.13;46.57;101252.63;4981116;28;19917;-80
2022/02/19 11:58:26;;;;;;;;;;;;;;;18.12;46.71;101250.91;4997116;28;19929;-82
2022/02/19 12:01:01;;;;;;;;;;;;;;;18.15;46.71;101261.31;4996909;28;20045;-81
2022/02/19 12:03:36;;;;;;;;;;;;;;;18.15;46.88;101252.63;5014910;28;19960;-82
2022/02/19 12:06:04;;;;;;;;;;;;;;;18.15;46.88;101256.09;4997074;28;19913;-81
2022/02/19 12:08:48;;;;;;;;;;;;;;;18.15;47.00;101258.69;4997096;28;19921;-81
2022/02/19 12:11:23;;;;;;;;;;;;;;;18.16;47.00;101257.84;5014598;28;19917;-84
2022/02/19 12:13:50;;;;;;;;;;;;;;;18.16;47.68;101268.25;4996983;28;19963;-81
2022/02/19 12:16:30;;;;;;;;;;;;;;;18.16;47.81;101273.47;4996765;28;20493;-81
2022/02/19 12:18:57;;;;;;;;;;;;;;;18.17;47.82;101259.56;4997124;28;19917;-82
2022/02/19 12:21:36;;;;;;;;;;;;;;;18.19;47.65;101264.78;4980867;28;20408;-80
2022/02/19 12:24:10;;;;;;;;;;;;;;;18.21;47.73;101266.50;5014704;28;19920;-84
2022/02/19 12:26:57;;;;;;;;;;;;;;;18.19;47.57;101268.25;5014231;28;19914;-79
2022/02/19 12:29:24;;;;;;;;;;;;;;;18.19;47.60;101277.81;4996897;28;19961;-80
2022/02/19 12:32:00;;;;;;;;;;;;;;;18.17;47.67;101274.34;4997375;28;19913;-80
2022/02/19 12:34:26;;;;;;;;;;;;;;;18.13;47.77;101270.88;4996949;28;19913;-82
2022/02/19 12:36:53;;;;;;;;;;;;;;;18.12;47.77;101253.53;4996899;28;19981;-83
2022/02/19 12:39:18;;;;;;;;;;;;;;;18.14;47.73;101256.09;5014208;28;19924;-82
2022/02/19 12:41:44;;;;;;;;;;;;;;;18.13;47.61;101249.19;4996532;28;19921;-82